sensor_id;sensor_type;location;lat;lon;timestamp;P1;durP1;ratioP1;P2;durP2;ratioP2
15764;SDS011;7983;50.744;7.086;2023-12-14T00:00:04;4.82;;;3.22;;
15764;SDS011;7983;50.744;7.086;2023-12-14T00:02:35;4.80;;;3.25;;
15764;SDS011;7983;50.744;7.086;2023-12-14T00:05:03;4.30;;;3.28;;
15764;SDS011;7983;50.744;7.086;2023-12-14T00:07:31;4.65;;;2.92;;
15764;SDS011;7983;50.744;7.086;2023-12-14T00:09:59;4.43;;;2.85;;
15764;SDS011;7983;50.744;7.086;2023-12-14T00:12:25;4.80;;;3.05;;
15764;SDS011;7983;50.744;7.086;2023-12-14T00:14:58;5.10;;;3.30;;
15764;SDS011;7983;50.744;7.086;2023-12-14T00:17:23;6.18;;;3.35;;
15764;SDS011;7983;50.744;7.086;2023-12-14T00:19:51;5.30;;;3.22;;
15764;SDS011;7983;50.744;7.086;2023-12-14T00:22:19;4.35;;;3.22;;
15764;SDS011;7983;50.744;7.086;2023-12-14T00:24:47;4.93;;;3.08;;
15764;SDS011;7983;50.744;7.086;2023-12-14T00:27:13;4.90;;;3.30;;
15764;SDS011;7983;50.744;7.086;2023-12-14T00:29:38;4.82;;;2.85;;
15764;SDS011;7983;50.744;7.086;2023-12-14T00:32:04;5.30;;;2.97;;
15764;SDS011;7983;50.744;7.086;2023-12-14T00:34:32;5.45;;;3.30;;
15764;SDS011;7983;50.744;7.086;2023-12-14T00:36:58;5.20;;;3.45;;
15764;SDS011;7983;50.744;7.086;2023-12-14T00:39:25;7.15;;;2.83;;
15764;SDS011;7983;50.744;7.086;2023-12-14T00:41:53;5.07;;;3.13;;
15764;SDS011;7983;50.744;7.086;2023-12-14T00:44:19;5.57;;;3.40;;
15764;SDS011;7983;50.744;7.086;2023-12-14T00:46:47;3.95;;;3.25;;
15764;SDS011;7983;50.744;7.086;2023-12-14T00:49:12;6.28;;;3.63;;
15764;SDS011;7983;50.744;7.086;2023-12-14T00:51:43;5.15;;;3.60;;
15764;SDS011;7983;50.744;7.086;2023-12-14T00:54:08;5.30;;;3.55;;
15764;SDS011;7983;50.744;7.086;2023-12-14T00:56:36;5.15;;;3.47;;
15764;SDS011;7983;50.744;7.086;2023-12-14T00:59:04;5.20;;;3.90;;
15764;SDS011;7983;50.744;7.086;2023-12-14T01:01:32;4.43;;;3.50;;
15764;SDS011;7983;50.744;7.086;2023-12-14T01:03:57;5.63;;;3.75;;
15764;SDS011;7983;50.744;7.086;2023-12-14T01:06:24;5.43;;;4.10;;
15764;SDS011;7983;50.744;7.086;2023-12-14T01:08:52;5.75;;;4.38;;
15764;SDS011;7983;50.744;7.086;2023-12-14T01:11:23;5.85;;;3.88;;
15764;SDS011;7983;50.744;7.086;2023-12-14T01:13:48;6.40;;;4.13;;
15764;SDS011;7983;50.744;7.086;2023-12-14T01:16:16;5.97;;;4.47;;
15764;SDS011;7983;50.744;7.086;2023-12-14T01:18:46;5.68;;;4.18;;
15764;SDS011;7983;50.744;7.086;2023-12-14T01:21:14;5.65;;;4.10;;
15764;SDS011;7983;50.744;7.086;2023-12-14T01:23:45;5.43;;;4.45;;
15764;SDS011;7983;50.744;7.086;2023-12-14T01:26:10;6.47;;;4.60;;
15764;SDS011;7983;50.744;7.086;2023-12-14T01:28:38;6.00;;;4.65;;
15764;SDS011;7983;50.744;7.086;2023-12-14T01:31:04;5.68;;;4.82;;
15764;SDS011;7983;50.744;7.086;2023-12-14T01:33:29;7.55;;;5.45;;
15764;SDS011;7983;50.744;7.086;2023-12-14T01:35:55;8.73;;;6.40;;
15764;SDS011;7983;50.744;7.086;2023-12-14T01:38:20;9.43;;;6.60;;
15764;SDS011;7983;50.744;7.086;2023-12-14T01:40:46;13.00;;;7.90;;
15764;SDS011;7983;50.744;7.086;2023-12-14T01:43:14;10.43;;;7.38;;
15764;SDS011;7983;50.744;7.086;2023-12-14T01:45:39;13.75;;;8.57;;
15764;SDS011;7983;50.744;7.086;2023-12-14T01:48:05;15.07;;;8.70;;
15764;SDS011;7983;50.744;7.086;2023-12-14T01:50:30;15.20;;;10.23;;
15764;SDS011;7983;50.744;7.086;2023-12-14T01:52:56;13.57;;;8.90;;
15764;SDS011;7983;50.744;7.086;2023-12-14T01:55:22;14.95;;;9.10;;
15764;SDS011;7983;50.744;7.086;2023-12-14T01:57:47;16.73;;;9.80;;
15764;SDS011;7983;50.744;7.086;2023-12-14T02:00:16;16.88;;;10.57;;
15764;SDS011;7983;50.744;7.086;2023-12-14T02:02:50;16.42;;;10.70;;
15764;SDS011;7983;50.744;7.086;2023-12-14T02:05:19;19.67;;;11.30;;
15764;SDS011;7983;50.744;7.086;2023-12-14T02:07:46;18.35;;;11.10;;
15764;SDS011;7983;50.744;7.086;2023-12-14T02:10:15;20.10;;;11.88;;
15764;SDS011;7983;50.744;7.086;2023-12-14T02:12:40;21.77;;;11.88;;
15764;SDS011;7983;50.744;7.086;2023-12-14T02:15:06;23.38;;;12.60;;
15764;SDS011;7983;50.744;7.086;2023-12-14T02:17:34;22.65;;;13.38;;
15764;SDS011;7983;50.744;7.086;2023-12-14T02:20:02;23.67;;;13.68;;
15764;SDS011;7983;50.744;7.086;2023-12-14T02:22:32;22.60;;;13.10;;
15764;SDS011;7983;50.744;7.086;2023-12-14T02:25:13;21.48;;;12.57;;
15764;SDS011;7983;50.744;7.086;2023-12-14T02:27:38;23.75;;;13.45;;
15764;SDS011;7983;50.744;7.086;2023-12-14T02:30:04;25.83;;;14.05;;
15764;SDS011;7983;50.744;7.086;2023-12-14T02:32:30;26.35;;;14.55;;
15764;SDS011;7983;50.744;7.086;2023-12-14T02:34:58;25.67;;;14.60;;
15764;SDS011;7983;50.744;7.086;2023-12-14T02:37:23;25.73;;;13.38;;
15764;SDS011;7983;50.744;7.086;2023-12-14T02:39:51;27.77;;;13.82;;
15764;SDS011;7983;50.744;7.086;2023-12-14T02:42:17;26.98;;;14.10;;
15764;SDS011;7983;50.744;7.086;2023-12-14T02:44:43;25.05;;;13.68;;
15764;SDS011;7983;50.744;7.086;2023-12-14T02:47:10;25.17;;;13.93;;
15764;SDS011;7983;50.744;7.086;2023-12-14T02:49:38;31.75;;;15.80;;
15764;SDS011;7983;50.744;7.086;2023-12-14T02:52:04;27.42;;;14.27;;
15764;SDS011;7983;50.744;7.086;2023-12-14T02:54:30;26.13;;;13.48;;
15764;SDS011;7983;50.744;7.086;2023-12-14T02:56:55;27.73;;;14.45;;
15764;SDS011;7983;50.744;7.086;2023-12-14T02:59:23;25.38;;;13.95;;
15764;SDS011;7983;50.744;7.086;2023-12-14T03:01:49;26.98;;;14.80;;
15764;SDS011;7983;50.744;7.086;2023-12-14T03:04:15;25.58;;;14.55;;
15764;SDS011;7983;50.744;7.086;2023-12-14T03:06:40;28.10;;;15.48;;
15764;SDS011;7983;50.744;7.086;2023-12-14T03:09:06;26.23;;;14.38;;
15764;SDS011;7983;50.744;7.086;2023-12-14T03:11:31;28.42;;;15.25;;
15764;SDS011;7983;50.744;7.086;2023-12-14T03:13:57;28.17;;;15.15;;
15764;SDS011;7983;50.744;7.086;2023-12-14T03:16:23;31.52;;;15.60;;
15764;SDS011;7983;50.744;7.086;2023-12-14T03:18:49;31.60;;;16.10;;
15764;SDS011;7983;50.744;7.086;2023-12-14T03:21:18;26.85;;;14.80;;
15764;SDS011;7983;50.744;7.086;2023-12-14T03:23:46;28.75;;;15.60;;
15764;SDS011;7983;50.744;7.086;2023-12-14T03:26:12;26.85;;;14.57;;
15764;SDS011;7983;50.744;7.086;2023-12-14T03:28:40;26.63;;;14.70;;
15764;SDS011;7983;50.744;7.086;2023-12-14T03:31:05;28.67;;;16.13;;
15764;SDS011;7983;50.744;7.086;2023-12-14T03:33:31;30.48;;;16.15;;
15764;SDS011;7983;50.744;7.086;2023-12-14T03:35:59;31.77;;;16.58;;
15764;SDS011;7983;50.744;7.086;2023-12-14T03:38:24;29.67;;;16.17;;
15764;SDS011;7983;50.744;7.086;2023-12-14T03:40:50;24.85;;;15.15;;
15764;SDS011;7983;50.744;7.086;2023-12-14T03:43:16;27.48;;;13.50;;
15764;SDS011;7983;50.744;7.086;2023-12-14T03:45:41;26.00;;;14.48;;
15764;SDS011;7983;50.744;7.086;2023-12-14T03:48:07;25.27;;;14.13;;
15764;SDS011;7983;50.744;7.086;2023-12-14T03:50:32;23.50;;;13.13;;
15764;SDS011;7983;50.744;7.086;2023-12-14T03:53:00;28.85;;;14.57;;
15764;SDS011;7983;50.744;7.086;2023-12-14T03:55:26;26.83;;;14.75;;
15764;SDS011;7983;50.744;7.086;2023-12-14T03:57:54;26.80;;;14.82;;
15764;SDS011;7983;50.744;7.086;2023-12-14T04:00:19;25.10;;;14.45;;
15764;SDS011;7983;50.744;7.086;2023-12-14T04:02:47;27.33;;;15.50;;
15764;SDS011;7983;50.744;7.086;2023-12-14T04:05:17;25.50;;;15.05;;
15764;SDS011;7983;50.744;7.086;2023-12-14T04:07:45;24.65;;;14.57;;
15764;SDS011;7983;50.744;7.086;2023-12-14T04:10:11;25.17;;;14.43;;
15764;SDS011;7983;50.744;7.086;2023-12-14T04:12:42;24.20;;;13.88;;
15764;SDS011;7983;50.744;7.086;2023-12-14T04:15:09;22.23;;;14.05;;
15764;SDS011;7983;50.744;7.086;2023-12-14T04:17:38;22.02;;;13.73;;
15764;SDS011;7983;50.744;7.086;2023-12-14T04:20:04;23.77;;;13.98;;
15764;SDS011;7983;50.744;7.086;2023-12-14T04:22:33;22.90;;;14.48;;
15764;SDS011;7983;50.744;7.086;2023-12-14T04:25:01;20.00;;;12.95;;
15764;SDS011;7983;50.744;7.086;2023-12-14T04:27:29;19.02;;;12.23;;
15764;SDS011;7983;50.744;7.086;2023-12-14T04:29:55;20.40;;;12.93;;
15764;SDS011;7983;50.744;7.086;2023-12-14T04:32:20;20.50;;;12.85;;
15764;SDS011;7983;50.744;7.086;2023-12-14T04:34:48;20.70;;;12.27;;
15764;SDS011;7983;50.744;7.086;2023-12-14T04:37:14;18.15;;;11.60;;
15764;SDS011;7983;50.744;7.086;2023-12-14T04:39:42;18.88;;;11.80;;
15764;SDS011;7983;50.744;7.086;2023-12-14T04:42:07;19.17;;;12.45;;
15764;SDS011;7983;50.744;7.086;2023-12-14T04:44:33;23.02;;;14.13;;
15764;SDS011;7983;50.744;7.086;2023-12-14T04:47:01;21.85;;;12.75;;
15764;SDS011;7983;50.744;7.086;2023-12-14T04:49:29;23.93;;;14.30;;
15764;SDS011;7983;50.744;7.086;2023-12-14T04:51:55;23.03;;;13.00;;
15764;SDS011;7983;50.744;7.086;2023-12-14T04:54:20;20.95;;;13.52;;
15764;SDS011;7983;50.744;7.086;2023-12-14T04:56:48;19.52;;;13.27;;
15764;SDS011;7983;50.744;7.086;2023-12-14T04:59:16;20.20;;;12.48;;
15764;SDS011;7983;50.744;7.086;2023-12-14T05:01:44;18.88;;;11.88;;
15764;SDS011;7983;50.744;7.086;2023-12-14T05:04:09;18.15;;;11.50;;
15764;SDS011;7983;50.744;7.086;2023-12-14T05:06:35;15.93;;;11.40;;
15764;SDS011;7983;50.744;7.086;2023-12-14T05:09:03;15.15;;;10.63;;
15764;SDS011;7983;50.744;7.086;2023-12-14T05:11:30;15.77;;;10.15;;
15764;SDS011;7983;50.744;7.086;2023-12-14T05:13:55;14.63;;;10.65;;
15764;SDS011;7983;50.744;7.086;2023-12-14T05:16:21;15.90;;;11.43;;
15764;SDS011;7983;50.744;7.086;2023-12-14T05:18:51;14.77;;;10.38;;
15764;SDS011;7983;50.744;7.086;2023-12-14T05:21:17;14.35;;;10.27;;
15764;SDS011;7983;50.744;7.086;2023-12-14T05:23:46;15.02;;;10.38;;
15764;SDS011;7983;50.744;7.086;2023-12-14T05:26:12;14.85;;;10.38;;
15764;SDS011;7983;50.744;7.086;2023-12-14T05:28:38;14.25;;;10.82;;
15764;SDS011;7983;50.744;7.086;2023-12-14T05:31:03;15.18;;;10.50;;
15764;SDS011;7983;50.744;7.086;2023-12-14T05:33:29;13.98;;;10.50;;
15764;SDS011;7983;50.744;7.086;2023-12-14T05:35:56;17.70;;;11.75;;
15764;SDS011;7983;50.744;7.086;2023-12-14T05:38:22;17.48;;;11.45;;
15764;SDS011;7983;50.744;7.086;2023-12-14T05:40:50;16.33;;;10.90;;
15764;SDS011;7983;50.744;7.086;2023-12-14T05:43:16;14.82;;;11.32;;
15764;SDS011;7983;50.744;7.086;2023-12-14T05:45:43;15.60;;;10.52;;
15764;SDS011;7983;50.744;7.086;2023-12-14T05:48:16;16.63;;;11.52;;
15764;SDS011;7983;50.744;7.086;2023-12-14T05:50:44;20.30;;;12.75;;
15764;SDS011;7983;50.744;7.086;2023-12-14T05:53:10;22.02;;;14.52;;
15764;SDS011;7983;50.744;7.086;2023-12-14T05:55:37;26.58;;;15.98;;
15764;SDS011;7983;50.744;7.086;2023-12-14T05:58:08;27.27;;;17.45;;
15764;SDS011;7983;50.744;7.086;2023-12-14T06:00:35;26.27;;;17.25;;
15764;SDS011;7983;50.744;7.086;2023-12-14T06:03:01;31.63;;;18.17;;
15764;SDS011;7983;50.744;7.086;2023-12-14T06:05:27;28.10;;;16.33;;
15764;SDS011;7983;50.744;7.086;2023-12-14T06:07:52;31.30;;;18.73;;
15764;SDS011;7983;50.744;7.086;2023-12-14T06:10:18;29.47;;;17.93;;
15764;SDS011;7983;50.744;7.086;2023-12-14T06:12:44;26.40;;;16.27;;
15764;SDS011;7983;50.744;7.086;2023-12-14T06:15:12;27.47;;;16.93;;
15764;SDS011;7983;50.744;7.086;2023-12-14T06:17:38;31.23;;;17.97;;
15764;SDS011;7983;50.744;7.086;2023-12-14T06:20:07;30.37;;;17.33;;
15764;SDS011;7983;50.744;7.086;2023-12-14T06:22:38;39.97;;;20.92;;
15764;SDS011;7983;50.744;7.086;2023-12-14T06:25:04;35.93;;;20.77;;
15764;SDS011;7983;50.744;7.086;2023-12-14T06:27:31;35.00;;;20.00;;
15764;SDS011;7983;50.744;7.086;2023-12-14T06:29:58;34.40;;;18.60;;
15764;SDS011;7983;50.744;7.086;2023-12-14T06:32:24;32.23;;;18.20;;
15764;SDS011;7983;50.744;7.086;2023-12-14T06:34:50;30.47;;;17.63;;
15764;SDS011;7983;50.744;7.086;2023-12-14T06:37:15;39.97;;;19.70;;
15764;SDS011;7983;50.744;7.086;2023-12-14T06:39:41;39.33;;;21.40;;
15764;SDS011;7983;50.744;7.086;2023-12-14T06:42:07;36.10;;;21.23;;
15764;SDS011;7983;50.744;7.086;2023-12-14T06:44:33;36.60;;;20.83;;
15764;SDS011;7983;50.744;7.086;2023-12-14T06:46:58;31.80;;;19.57;;
15764;SDS011;7983;50.744;7.086;2023-12-14T06:49:25;34.23;;;20.40;;
15764;SDS011;7983;50.744;7.086;2023-12-14T06:51:50;33.27;;;20.13;;
15764;SDS011;7983;50.744;7.086;2023-12-14T06:54:16;32.80;;;19.77;;
15764;SDS011;7983;50.744;7.086;2023-12-14T06:56:42;39.37;;;22.10;;
15764;SDS011;7983;50.744;7.086;2023-12-14T06:59:08;33.05;;;19.90;;
15764;SDS011;7983;50.744;7.086;2023-12-14T07:01:33;35.10;;;20.07;;
15764;SDS011;7983;50.744;7.086;2023-12-14T07:03:59;31.70;;;18.73;;
15764;SDS011;7983;50.744;7.086;2023-12-14T07:06:25;39.00;;;20.83;;
15764;SDS011;7983;50.744;7.086;2023-12-14T07:08:51;38.23;;;22.37;;
15764;SDS011;7983;50.744;7.086;2023-12-14T07:11:16;32.30;;;19.63;;
15764;SDS011;7983;50.744;7.086;2023-12-14T07:13:47;32.23;;;18.70;;
15764;SDS011;7983;50.744;7.086;2023-12-14T07:16:17;32.90;;;18.40;;
15764;SDS011;7983;50.744;7.086;2023-12-14T07:18:43;31.90;;;17.83;;
15764;SDS011;7983;50.744;7.086;2023-12-14T07:21:09;32.67;;;18.97;;
15764;SDS011;7983;50.744;7.086;2023-12-14T07:23:36;33.27;;;18.63;;
15764;SDS011;7983;50.744;7.086;2023-12-14T07:26:04;31.07;;;18.27;;
15764;SDS011;7983;50.744;7.086;2023-12-14T07:28:30;34.67;;;18.70;;
15764;SDS011;7983;50.744;7.086;2023-12-14T07:30:56;33.10;;;18.07;;
15764;SDS011;7983;50.744;7.086;2023-12-14T07:33:21;34.90;;;19.40;;
15764;SDS011;7983;50.744;7.086;2023-12-14T07:35:50;30.13;;;16.97;;
15764;SDS011;7983;50.744;7.086;2023-12-14T07:38:15;32.77;;;17.10;;
15764;SDS011;7983;50.744;7.086;2023-12-14T07:40:41;31.80;;;17.97;;
15764;SDS011;7983;50.744;7.086;2023-12-14T07:43:07;32.67;;;17.73;;
15764;SDS011;7983;50.744;7.086;2023-12-14T07:45:35;27.30;;;15.20;;
15764;SDS011;7983;50.744;7.086;2023-12-14T07:48:01;25.80;;;14.50;;
15764;SDS011;7983;50.744;7.086;2023-12-14T07:50:31;25.67;;;14.43;;
15764;SDS011;7983;50.744;7.086;2023-12-14T07:53:01;23.57;;;13.87;;
15764;SDS011;7983;50.744;7.086;2023-12-14T07:55:27;24.30;;;13.53;;
15764;SDS011;7983;50.744;7.086;2023-12-14T07:57:58;22.67;;;13.57;;
15764;SDS011;7983;50.744;7.086;2023-12-14T08:00:26;25.47;;;13.97;;
15764;SDS011;7983;50.744;7.086;2023-12-14T08:02:53;22.23;;;12.80;;
15764;SDS011;7983;50.744;7.086;2023-12-14T08:05:22;23.77;;;13.17;;
15764;SDS011;7983;50.744;7.086;2023-12-14T08:07:47;22.63;;;13.00;;
15764;SDS011;7983;50.744;7.086;2023-12-14T08:10:13;22.03;;;11.90;;
15764;SDS011;7983;50.744;7.086;2023-12-14T08:12:38;23.30;;;12.33;;
15764;SDS011;7983;50.744;7.086;2023-12-14T08:15:07;33.07;;;15.47;;
15764;SDS011;7983;50.744;7.086;2023-12-14T08:17:37;26.53;;;13.53;;
15764;SDS011;7983;50.744;7.086;2023-12-14T08:20:02;33.47;;;16.47;;
15764;SDS011;7983;50.744;7.086;2023-12-14T08:22:34;34.80;;;16.37;;
15764;SDS011;7983;50.744;7.086;2023-12-14T08:25:02;36.77;;;17.43;;
15764;SDS011;7983;50.744;7.086;2023-12-14T08:27:28;35.20;;;16.57;;
15764;SDS011;7983;50.744;7.086;2023-12-14T08:29:54;31.27;;;15.13;;
15764;SDS011;7983;50.744;7.086;2023-12-14T08:32:22;31.00;;;15.47;;
15764;SDS011;7983;50.744;7.086;2023-12-14T08:34:52;31.50;;;16.77;;
15764;SDS011;7983;50.744;7.086;2023-12-14T08:37:18;30.13;;;14.87;;
15764;SDS011;7983;50.744;7.086;2023-12-14T08:39:48;29.60;;;14.77;;
15764;SDS011;7983;50.744;7.086;2023-12-14T08:42:14;24.87;;;12.40;;
15764;SDS011;7983;50.744;7.086;2023-12-14T08:44:40;22.43;;;12.00;;
15764;SDS011;7983;50.744;7.086;2023-12-14T08:47:08;24.20;;;12.73;;
15764;SDS011;7983;50.744;7.086;2023-12-14T08:49:38;23.73;;;12.70;;
15764;SDS011;7983;50.744;7.086;2023-12-14T08:52:09;18.97;;;10.63;;
15764;SDS011;7983;50.744;7.086;2023-12-14T08:54:36;21.97;;;11.83;;
15764;SDS011;7983;50.744;7.086;2023-12-14T08:57:04;22.47;;;12.60;;
15764;SDS011;7983;50.744;7.086;2023-12-14T08:59:30;21.47;;;12.03;;
15764;SDS011;7983;50.744;7.086;2023-12-14T09:01:56;19.50;;;10.63;;
15764;SDS011;7983;50.744;7.086;2023-12-14T09:04:21;19.53;;;10.67;;
15764;SDS011;7983;50.744;7.086;2023-12-14T09:06:49;17.03;;;9.83;;
15764;SDS011;7983;50.744;7.086;2023-12-14T09:09:16;19.57;;;10.83;;
15764;SDS011;7983;50.744;7.086;2023-12-14T09:11:44;18.73;;;10.07;;
15764;SDS011;7983;50.744;7.086;2023-12-14T09:14:10;17.50;;;9.27;;
15764;SDS011;7983;50.744;7.086;2023-12-14T09:16:36;16.93;;;9.97;;
15764;SDS011;7983;50.744;7.086;2023-12-14T09:19:01;19.10;;;10.07;;
15764;SDS011;7983;50.744;7.086;2023-12-14T09:21:27;17.77;;;10.00;;
15764;SDS011;7983;50.744;7.086;2023-12-14T09:23:52;16.50;;;9.33;;
15764;SDS011;7983;50.744;7.086;2023-12-14T09:26:20;15.80;;;9.40;;
15764;SDS011;7983;50.744;7.086;2023-12-14T09:28:46;17.30;;;9.87;;
15764;SDS011;7983;50.744;7.086;2023-12-14T09:31:11;15.80;;;8.90;;
15764;SDS011;7983;50.744;7.086;2023-12-14T09:33:41;15.53;;;9.07;;
15764;SDS011;7983;50.744;7.086;2023-12-14T09:36:06;16.17;;;8.87;;
15764;SDS011;7983;50.744;7.086;2023-12-14T09:38:37;16.07;;;9.33;;
15764;SDS011;7983;50.744;7.086;2023-12-14T09:41:03;15.03;;;8.80;;
15764;SDS011;7983;50.744;7.086;2023-12-14T09:43:31;16.93;;;10.20;;
15764;SDS011;7983;50.744;7.086;2023-12-14T09:46:00;14.93;;;9.07;;
15764;SDS011;7983;50.744;7.086;2023-12-14T09:48:28;13.77;;;8.03;;
15764;SDS011;7983;50.744;7.086;2023-12-14T09:50:55;14.07;;;8.50;;
15764;SDS011;7983;50.744;7.086;2023-12-14T09:53:23;12.70;;;7.97;;
15764;SDS011;7983;50.744;7.086;2023-12-14T09:55:51;13.23;;;7.93;;
15764;SDS011;7983;50.744;7.086;2023-12-14T09:58:16;13.27;;;7.87;;
15764;SDS011;7983;50.744;7.086;2023-12-14T10:00:42;11.93;;;8.07;;
15764;SDS011;7983;50.744;7.086;2023-12-14T10:03:28;16.23;;;8.83;;
15764;SDS011;7983;50.744;7.086;2023-12-14T10:05:58;12.13;;;7.50;;
15764;SDS011;7983;50.744;7.086;2023-12-14T10:08:26;11.33;;;7.13;;
15764;SDS011;7983;50.744;7.086;2023-12-14T10:10:53;11.30;;;7.07;;
15764;SDS011;7983;50.744;7.086;2023-12-14T10:13:21;11.40;;;7.57;;
15764;SDS011;7983;50.744;7.086;2023-12-14T10:16:03;11.33;;;7.30;;
15764;SDS011;7983;50.744;7.086;2023-12-14T10:18:31;12.43;;;7.80;;
15764;SDS011;7983;50.744;7.086;2023-12-14T10:20:59;11.83;;;7.90;;
15764;SDS011;7983;50.744;7.086;2023-12-14T10:23:25;13.73;;;8.87;;
15764;SDS011;7983;50.744;7.086;2023-12-14T10:25:53;13.90;;;8.13;;
15764;SDS011;7983;50.744;7.086;2023-12-14T10:28:20;12.67;;;7.87;;
15764;SDS011;7983;50.744;7.086;2023-12-14T10:30:52;13.10;;;8.37;;
15764;SDS011;7983;50.744;7.086;2023-12-14T10:33:17;15.57;;;9.40;;
15764;SDS011;7983;50.744;7.086;2023-12-14T10:35:43;13.93;;;8.70;;
15764;SDS011;7983;50.744;7.086;2023-12-14T10:38:11;14.57;;;8.93;;
15764;SDS011;7983;50.744;7.086;2023-12-14T10:40:41;15.50;;;9.27;;
15764;SDS011;7983;50.744;7.086;2023-12-14T10:43:12;15.77;;;9.63;;
15764;SDS011;7983;50.744;7.086;2023-12-14T10:45:40;16.87;;;10.57;;
15764;SDS011;7983;50.744;7.086;2023-12-14T10:48:09;15.80;;;9.73;;
15764;SDS011;7983;50.744;7.086;2023-12-14T10:50:38;15.27;;;9.10;;
15764;SDS011;7983;50.744;7.086;2023-12-14T10:53:07;15.90;;;9.93;;
15764;SDS011;7983;50.744;7.086;2023-12-14T10:55:36;15.77;;;9.27;;
15764;SDS011;7983;50.744;7.086;2023-12-14T10:58:05;17.00;;;11.10;;
15764;SDS011;7983;50.744;7.086;2023-12-14T11:00:33;16.80;;;10.37;;
15764;SDS011;7983;50.744;7.086;2023-12-14T11:03:03;13.27;;;8.90;;
15764;SDS011;7983;50.744;7.086;2023-12-14T11:05:32;15.07;;;9.30;;
15764;SDS011;7983;50.744;7.086;2023-12-14T11:08:02;14.83;;;9.33;;
15764;SDS011;7983;50.744;7.086;2023-12-14T11:13:10;16.37;;;10.80;;
15764;SDS011;7983;50.744;7.086;2023-12-14T11:15:40;16.97;;;10.60;;
15764;SDS011;7983;50.744;7.086;2023-12-14T11:23:11;15.13;;;10.00;;
15764;SDS011;7983;50.744;7.086;2023-12-14T11:25:48;17.13;;;11.03;;
15764;SDS011;7983;50.744;7.086;2023-12-14T11:28:14;17.10;;;11.33;;
15764;SDS011;7983;50.744;7.086;2023-12-14T11:30:42;16.03;;;10.83;;
15764;SDS011;7983;50.744;7.086;2023-12-14T11:33:10;21.27;;;12.57;;
15764;SDS011;7983;50.744;7.086;2023-12-14T11:35:36;19.50;;;11.77;;
15764;SDS011;7983;50.744;7.086;2023-12-14T11:38:04;17.47;;;11.77;;
15764;SDS011;7983;50.744;7.086;2023-12-14T11:40:44;15.43;;;10.37;;
15764;SDS011;7983;50.744;7.086;2023-12-14T11:43:13;16.70;;;10.63;;
15764;SDS011;7983;50.744;7.086;2023-12-14T11:45:43;19.17;;;12.40;;
15764;SDS011;7983;50.744;7.086;2023-12-14T11:48:14;19.67;;;12.07;;
15764;SDS011;7983;50.744;7.086;2023-12-14T11:50:42;19.00;;;12.00;;
15764;SDS011;7983;50.744;7.086;2023-12-14T11:53:08;24.23;;;13.40;;
15764;SDS011;7983;50.744;7.086;2023-12-14T11:55:35;25.13;;;14.70;;
15764;SDS011;7983;50.744;7.086;2023-12-14T11:58:03;22.07;;;12.50;;
15764;SDS011;7983;50.744;7.086;2023-12-14T12:00:29;22.07;;;13.70;;
15764;SDS011;7983;50.744;7.086;2023-12-14T12:03:09;18.50;;;12.57;;
15764;SDS011;7983;50.744;7.086;2023-12-14T12:05:38;17.73;;;11.30;;
15764;SDS011;7983;50.744;7.086;2023-12-14T12:08:08;16.80;;;10.93;;
15764;SDS011;7983;50.744;7.086;2023-12-14T12:10:38;16.10;;;10.43;;
15764;SDS011;7983;50.744;7.086;2023-12-14T12:13:05;18.23;;;11.20;;
15764;SDS011;7983;50.744;7.086;2023-12-14T12:15:35;21.77;;;12.57;;
15764;SDS011;7983;50.744;7.086;2023-12-14T12:18:04;20.00;;;11.90;;
15764;SDS011;7983;50.744;7.086;2023-12-14T12:20:31;16.57;;;10.60;;
15764;SDS011;7983;50.744;7.086;2023-12-14T12:22:57;18.03;;;11.63;;
15764;SDS011;7983;50.744;7.086;2023-12-14T12:25:23;16.53;;;10.70;;
15764;SDS011;7983;50.744;7.086;2023-12-14T12:27:49;14.33;;;9.63;;
15764;SDS011;7983;50.744;7.086;2023-12-14T12:30:15;15.67;;;10.33;;
15764;SDS011;7983;50.744;7.086;2023-12-14T12:32:41;13.87;;;9.17;;
15764;SDS011;7983;50.744;7.086;2023-12-14T12:35:07;14.27;;;9.70;;
15764;SDS011;7983;50.744;7.086;2023-12-14T12:37:33;13.23;;;9.37;;
15764;SDS011;7983;50.744;7.086;2023-12-14T12:39:59;14.00;;;9.47;;
15764;SDS011;7983;50.744;7.086;2023-12-14T12:42:24;14.37;;;9.23;;
15764;SDS011;7983;50.744;7.086;2023-12-14T12:44:53;14.33;;;9.43;;
15764;SDS011;7983;50.744;7.086;2023-12-14T12:47:18;14.27;;;9.53;;
15764;SDS011;7983;50.744;7.086;2023-12-14T12:49:44;13.93;;;9.73;;
15764;SDS011;7983;50.744;7.086;2023-12-14T12:52:09;14.97;;;9.67;;
15764;SDS011;7983;50.744;7.086;2023-12-14T12:54:35;11.27;;;8.67;;
15764;SDS011;7983;50.744;7.086;2023-12-14T12:57:01;13.87;;;9.90;;
15764;SDS011;7983;50.744;7.086;2023-12-14T12:59:26;15.93;;;10.67;;
15764;SDS011;7983;50.744;7.086;2023-12-14T13:01:54;15.20;;;10.30;;
15764;SDS011;7983;50.744;7.086;2023-12-14T13:04:20;14.60;;;9.67;;
15764;SDS011;7983;50.744;7.086;2023-12-14T13:06:47;14.80;;;9.97;;
15764;SDS011;7983;50.744;7.086;2023-12-14T13:09:16;13.87;;;9.40;;
15764;SDS011;7983;50.744;7.086;2023-12-14T13:11:43;16.00;;;10.60;;
15764;SDS011;7983;50.744;7.086;2023-12-14T13:14:09;12.83;;;9.03;;
15764;SDS011;7983;50.744;7.086;2023-12-14T13:16:35;13.97;;;9.70;;
15764;SDS011;7983;50.744;7.086;2023-12-14T13:19:03;13.60;;;9.70;;
15764;SDS011;7983;50.744;7.086;2023-12-14T13:21:32;13.20;;;8.70;;
15764;SDS011;7983;50.744;7.086;2023-12-14T13:24:02;14.90;;;10.33;;
15764;SDS011;7983;50.744;7.086;2023-12-14T13:26:29;12.90;;;8.57;;
15764;SDS011;7983;50.744;7.086;2023-12-14T13:28:57;12.40;;;8.23;;
15764;SDS011;7983;50.744;7.086;2023-12-14T13:31:22;12.00;;;8.37;;
15764;SDS011;7983;50.744;7.086;2023-12-14T13:33:49;12.57;;;8.93;;
15764;SDS011;7983;50.744;7.086;2023-12-14T13:36:18;13.53;;;8.43;;
15764;SDS011;7983;50.744;7.086;2023-12-14T13:38:44;13.33;;;8.67;;
15764;SDS011;7983;50.744;7.086;2023-12-14T13:41:14;12.13;;;8.37;;
15764;SDS011;7983;50.744;7.086;2023-12-14T13:43:40;13.30;;;9.00;;
15764;SDS011;7983;50.744;7.086;2023-12-14T13:46:08;13.10;;;9.10;;
15764;SDS011;7983;50.744;7.086;2023-12-14T13:48:33;12.20;;;8.53;;
15764;SDS011;7983;50.744;7.086;2023-12-14T13:50:59;13.60;;;9.53;;
15764;SDS011;7983;50.744;7.086;2023-12-14T13:53:25;12.53;;;8.77;;
15764;SDS011;7983;50.744;7.086;2023-12-14T13:55:50;13.80;;;9.40;;
15764;SDS011;7983;50.744;7.086;2023-12-14T13:58:16;13.93;;;9.57;;
15764;SDS011;7983;50.744;7.086;2023-12-14T14:00:45;12.73;;;9.13;;
15764;SDS011;7983;50.744;7.086;2023-12-14T14:03:13;13.47;;;8.87;;
15764;SDS011;7983;50.744;7.086;2023-12-14T14:05:41;13.67;;;9.40;;
15764;SDS011;7983;50.744;7.086;2023-12-14T14:08:09;11.93;;;8.30;;
15764;SDS011;7983;50.744;7.086;2023-12-14T14:10:37;13.80;;;9.67;;
15764;SDS011;7983;50.744;7.086;2023-12-14T14:13:03;13.93;;;9.73;;
15764;SDS011;7983;50.744;7.086;2023-12-14T14:15:28;15.13;;;9.83;;
15764;SDS011;7983;50.744;7.086;2023-12-14T14:17:55;13.30;;;9.17;;
15764;SDS011;7983;50.744;7.086;2023-12-14T14:20:20;11.70;;;8.73;;
15764;SDS011;7983;50.744;7.086;2023-12-14T14:22:47;15.33;;;9.33;;
15764;SDS011;7983;50.744;7.086;2023-12-14T14:25:15;12.87;;;9.40;;
15764;SDS011;7983;50.744;7.086;2023-12-14T14:27:43;12.00;;;8.83;;
15764;SDS011;7983;50.744;7.086;2023-12-14T14:30:12;12.80;;;8.00;;
15764;SDS011;7983;50.744;7.086;2023-12-14T14:32:43;11.13;;;7.80;;
15764;SDS011;7983;50.744;7.086;2023-12-14T14:35:12;13.07;;;8.10;;
15764;SDS011;7983;50.744;7.086;2023-12-14T14:37:38;12.30;;;7.93;;
15764;SDS011;7983;50.744;7.086;2023-12-14T14:40:10;10.13;;;7.30;;
15764;SDS011;7983;50.744;7.086;2023-12-14T14:42:36;9.60;;;6.73;;
15764;SDS011;7983;50.744;7.086;2023-12-14T14:45:02;9.10;;;6.67;;
15764;SDS011;7983;50.744;7.086;2023-12-14T14:47:28;9.80;;;6.43;;